createdAt,value
2022-09-20T00:01:32.598Z,0.82
2022-09-20T00:04:05.164Z,1.10
2022-09-20T00:06:34.139Z,0.68
2022-09-20T00:09:03.202Z,0.90
2022-09-20T00:11:33.610Z,0.93
2022-09-20T00:14:02.954Z,0.95
2022-09-20T00:16:33.859Z,1.00
2022-09-20T00:19:05.568Z,1.02
2022-09-20T00:21:35.181Z,1.10
2022-09-20T00:24:02.793Z,0.95
2022-09-20T00:26:30.083Z,1.02
2022-09-20T00:28:58.409Z,0.90
2022-09-20T00:31:26.101Z,0.80
2022-09-20T00:34:16.489Z,0.90
2022-09-20T00:36:44.677Z,0.90
2022-09-20T00:39:14.555Z,0.70
2022-09-20T00:41:42.217Z,1.02
2022-09-20T00:44:43.485Z,0.98
2022-09-20T00:47:48.582Z,0.90
2022-09-20T00:50:42.038Z,1.00
2022-09-20T00:53:25.199Z,0.90
2022-09-20T00:55:58.931Z,0.82
2022-09-20T00:58:29.021Z,0.80
2022-09-20T01:00:57.890Z,1.00
2022-09-20T01:03:31.567Z,1.10
2022-09-20T01:06:02.247Z,0.82
2022-09-20T01:08:29.659Z,1.15
2022-09-20T01:10:57.015Z,0.70
2022-09-20T01:13:24.225Z,0.88
2022-09-20T01:15:52.331Z,0.90
2022-09-20T01:18:21.285Z,1.00
2022-09-20T01:20:49.210Z,1.08
2022-09-20T01:23:22.416Z,0.90
2022-09-20T01:26:11.447Z,0.70
2022-09-20T01:28:42.561Z,0.80
2022-09-20T01:31:22.945Z,1.02
2022-09-20T01:34:14.173Z,0.95
2022-09-20T01:37:05.088Z,1.00
2022-09-20T01:39:50.315Z,0.77
2022-09-20T01:42:17.733Z,1.10
2022-09-20T01:44:56.843Z,0.98
2022-09-20T01:47:55.298Z,0.90
2022-09-20T01:50:34.331Z,0.85
2022-09-20T01:53:29.406Z,0.93
2022-09-20T01:55:59.737Z,0.80
2022-09-20T01:59:12.518Z,0.82
2022-09-20T02:02:00.775Z,0.70
2022-09-20T02:04:46.802Z,0.90
2022-09-20T02:07:41.465Z,0.77
2022-09-20T02:10:36.819Z,0.80
2022-09-20T02:13:16.130Z,0.75
2022-09-20T02:16:01.045Z,0.90
2022-09-20T02:21:40.253Z,0.70
2022-09-20T02:24:27.960Z,0.80
2022-09-20T02:27:13.477Z,1.33
2022-09-20T02:29:43.488Z,1.00
2022-09-20T02:32:29.502Z,1.33
2022-09-20T02:35:12.063Z,0.82
2022-09-20T02:38:14.961Z,0.80
2022-09-20T02:41:02.029Z,0.70
2022-09-20T02:44:01.070Z,0.70
2022-09-20T02:46:44.334Z,0.77
2022-09-20T02:49:15.088Z,1.10
2022-09-20T02:51:49.962Z,1.08
2022-09-20T02:54:34.510Z,1.38
2022-09-20T02:57:37.071Z,1.35
2022-09-20T03:00:16.685Z,1.13
2022-09-20T03:03:13.786Z,1.02
2022-09-20T03:06:04.112Z,1.38
2022-09-20T03:08:47.107Z,1.00
2022-09-20T03:11:41.715Z,1.13
2022-09-20T03:14:11.970Z,1.30
2022-09-20T03:16:52.478Z,0.80
2022-09-20T03:19:46.645Z,1.20
2022-09-20T03:22:41.612Z,0.82
2022-09-20T03:25:34.379Z,0.77
2022-09-20T03:28:16.762Z,1.02
2022-09-20T03:30:57.072Z,0.90
2022-09-20T03:33:33.094Z,0.80
2022-09-20T03:36:03.118Z,0.95
2022-09-20T03:38:42.182Z,0.80
2022-09-20T03:41:27.119Z,0.85
2022-09-20T03:43:57.333Z,0.80
2022-09-20T03:46:28.899Z,0.60
2022-09-20T03:49:34.953Z,0.70
2022-09-20T03:52:45.668Z,0.55
2022-09-20T03:55:15.869Z,0.60
2022-09-20T03:57:53.076Z,0.70
2022-09-20T04:00:24.951Z,0.45
2022-09-20T04:03:27.746Z,0.68
2022-09-20T04:06:19.013Z,0.60
2022-09-20T04:09:20.150Z,0.70
2022-09-20T04:12:08.630Z,0.60
2022-09-20T04:15:07.474Z,0.80
2022-09-20T04:18:12.852Z,0.60
2022-09-20T04:20:55.072Z,0.60
2022-09-20T04:23:31.489Z,0.65
2022-09-20T04:26:01.326Z,0.60
2022-09-20T04:28:41.664Z,0.60
2022-09-20T04:31:50.924Z,0.60
2022-09-20T04:34:51.819Z,0.63
2022-09-20T04:37:33.510Z,0.60
2022-09-20T04:40:15.299Z,0.60
2022-09-20T04:43:41.626Z,0.70
2022-09-20T04:46:29.244Z,0.68
2022-09-20T04:49:50.821Z,0.63
2022-09-20T04:52:32.618Z,0.60
2022-09-20T04:55:18.562Z,0.57
2022-09-20T04:58:10.363Z,0.60
2022-09-20T05:01:08.518Z,0.50
2022-09-20T05:04:09.895Z,0.65
2022-09-20T05:07:11.155Z,0.70
2022-09-20T05:09:41.449Z,0.65
2022-09-20T05:12:30.131Z,0.70
2022-09-20T05:15:23.575Z,0.75
2022-09-20T05:18:10.191Z,0.50
2022-09-20T05:20:47.245Z,0.60
2022-09-20T05:23:38.991Z,0.68
2022-09-20T05:26:25.566Z,0.52
2022-09-20T05:29:24.819Z,0.52
2022-09-20T05:32:02.176Z,0.60
2022-09-20T05:34:34.184Z,0.60
2022-09-20T05:37:29.356Z,0.80
2022-09-20T05:40:32.382Z,0.60
2022-09-20T05:43:08.897Z,0.70
2022-09-20T05:46:08.544Z,0.65
2022-09-20T05:48:56.993Z,0.57
2022-09-20T05:51:52.457Z,0.65
2022-09-20T05:57:07.411Z,0.50
2022-09-20T05:59:58.861Z,0.57
2022-09-20T06:02:49.301Z,0.70
2022-09-20T06:05:42.778Z,0.68
2022-09-20T06:08:53.111Z,0.77
2022-09-20T06:11:49.032Z,0.70
2022-09-20T06:14:19.088Z,0.70
2022-09-20T06:17:13.293Z,0.75
2022-09-20T06:20:04.892Z,0.85
2022-09-20T06:22:43.068Z,1.00
2022-09-20T06:25:10.251Z,0.80
2022-09-20T06:27:43.630Z,1.38
2022-09-20T06:30:31.479Z,0.73
2022-09-20T06:33:06.318Z,0.93
2022-09-20T06:35:43.780Z,0.75
2022-09-20T06:38:45.604Z,0.95
2022-09-20T06:41:28.671Z,0.75
2022-09-20T06:44:00.946Z,1.08
2022-09-20T06:46:30.030Z,0.90
2022-09-20T06:48:58.135Z,1.15
2022-09-20T06:51:27.742Z,1.10
2022-09-20T06:53:56.834Z,1.50
2022-09-20T06:56:31.201Z,1.20
2022-09-20T06:58:58.473Z,1.42
2022-09-20T07:01:30.523Z,1.75
2022-09-20T07:03:59.191Z,1.73
2022-09-20T07:06:26.861Z,2.03
2022-09-20T07:08:54.173Z,1.42
2022-09-20T07:11:23.232Z,2.05
2022-09-20T07:13:52.626Z,2.30
2022-09-20T07:16:20.672Z,1.80
2022-09-20T07:18:49.233Z,1.60
2022-09-20T07:21:18.689Z,1.42
2022-09-20T07:23:48.687Z,1.88
2022-09-20T07:26:28.439Z,1.83
2022-09-20T07:28:57.550Z,2.13
2022-09-20T07:31:26.726Z,2.47
2022-09-20T07:33:54.082Z,1.73
2022-09-20T07:36:21.669Z,2.15
2022-09-20T07:38:51.146Z,2.60
2022-09-20T07:41:19.585Z,2.00
2022-09-20T07:43:46.937Z,2.63
2022-09-20T07:46:14.209Z,2.28
2022-09-20T07:48:41.976Z,2.63
2022-09-20T07:51:11.721Z,2.78
2022-09-20T07:53:39.905Z,2.83
2022-09-20T07:56:12.473Z,2.53
2022-09-20T07:58:40.001Z,3.35
2022-09-20T08:01:13.481Z,3.30
2022-09-20T08:03:42.969Z,3.15
2022-09-20T08:06:12.025Z,3.47
2022-09-20T08:08:40.832Z,2.95
2022-09-20T08:11:12.855Z,3.67
2022-09-20T08:16:37.410Z,5.97
2022-09-20T08:19:04.740Z,3.72
2022-09-20T08:21:34.136Z,3.40
2022-09-20T08:24:01.860Z,2.53
2022-09-20T08:26:31.692Z,2.53
2022-09-20T08:29:00.306Z,3.22
2022-09-20T08:31:34.446Z,3.45
2022-09-20T08:34:03.892Z,1.65
2022-09-20T08:36:36.472Z,2.50
2022-09-20T08:42:03.062Z,1.80
2022-09-20T08:44:35.702Z,1.48
2022-09-20T08:47:19.388Z,1.95
2022-09-20T08:49:47.007Z,2.25
2022-09-20T08:52:20.174Z,1.17
2022-09-20T08:54:47.556Z,1.27
2022-09-20T08:57:17.528Z,1.10
2022-09-20T08:59:45.257Z,0.98
2022-09-20T09:02:20.193Z,1.10
2022-09-20T09:04:49.729Z,1.00
2022-09-20T09:07:21.947Z,1.20
2022-09-20T09:09:52.034Z,0.82
2022-09-20T09:12:26.703Z,0.80
2022-09-20T09:14:59.396Z,0.90
2022-09-20T09:17:29.422Z,0.52
2022-09-20T09:20:15.178Z,0.75
2022-09-20T09:22:45.268Z,1.77
2022-09-20T09:25:17.064Z,0.90
2022-09-20T09:27:59.767Z,0.82
2022-09-20T09:30:37.441Z,0.75
2022-09-20T09:33:31.498Z,0.63
2022-09-20T09:36:07.837Z,0.68
2022-09-20T09:38:45.472Z,0.50
2022-09-20T09:41:25.372Z,0.50
2022-09-20T09:44:22.934Z,0.47
2022-09-20T09:46:50.782Z,0.22
2022-09-20T09:49:19.292Z,0.30
2022-09-20T09:52:13.130Z,0.20
2022-09-20T09:54:51.953Z,0.40
2022-09-20T09:57:42.404Z,0.40
2022-09-20T10:00:31.563Z,0.35
2022-09-20T10:03:07.575Z,0.40
2022-09-20T10:05:43.546Z,0.28
2022-09-20T10:08:41.455Z,0.30
2022-09-20T10:11:39.616Z,0.40
2022-09-20T10:14:12.732Z,0.30
2022-09-20T10:17:04.975Z,0.20
2022-09-20T10:19:50.951Z,0.30
2022-09-20T10:23:06.832Z,0.30
2022-09-20T10:25:59.182Z,0.35
2022-09-20T10:28:50.494Z,0.30
2022-09-20T10:31:42.563Z,0.38
2022-09-20T10:34:18.722Z,0.20
2022-09-20T10:36:53.779Z,0.20
2022-09-20T10:39:39.331Z,0.20
2022-09-20T10:43:06.125Z,0.30
2022-09-20T10:46:03.737Z,0.20
2022-09-20T10:48:42.707Z,0.20
2022-09-20T10:51:39.479Z,0.22
2022-09-20T10:54:30.295Z,0.30
2022-09-20T10:57:23.175Z,0.30
2022-09-20T11:00:17.226Z,0.20
2022-09-20T11:03:22.131Z,0.20
2022-09-20T11:06:10.606Z,0.10
2022-09-20T11:08:40.048Z,0.30
2022-09-20T11:11:19.829Z,0.30
2022-09-20T11:13:49.802Z,0.30
2022-09-20T11:16:31.660Z,0.28
2022-09-20T11:19:14.982Z,0.20
2022-09-20T11:22:09.084Z,0.30
2022-09-20T11:24:45.341Z,0.20
2022-09-20T11:27:21.349Z,0.20
2022-09-20T11:30:01.085Z,0.30
2022-09-20T11:32:48.610Z,0.20
2022-09-20T11:35:41.977Z,0.10
2022-09-20T11:38:16.538Z,0.10
2022-09-20T11:43:16.001Z,0.15
2022-09-20T11:45:45.015Z,0.30
2022-09-20T11:48:22.054Z,0.10
2022-09-20T11:51:36.027Z,0.10
2022-09-20T11:54:27.736Z,0.10
2022-09-20T11:56:57.670Z,0.20
2022-09-20T11:59:28.374Z,0.20
2022-09-20T12:01:59.519Z,0.20
2022-09-20T12:04:33.563Z,0.10
2022-09-20T12:07:09.774Z,0.13
2022-09-20T12:09:43.487Z,0.30
2022-09-20T12:12:31.500Z,0.20
2022-09-20T12:15:01.779Z,0.10
2022-09-20T12:17:47.449Z,0.17
2022-09-20T12:20:33.108Z,0.20
2022-09-20T12:23:54.631Z,0.15
2022-09-20T12:26:21.908Z,0.20
2022-09-20T12:28:57.282Z,0.20
2022-09-20T12:31:32.176Z,0.30
2022-09-20T12:34:26.174Z,0.10
2022-09-20T12:36:56.459Z,0.20
2022-09-20T12:39:35.101Z,0.20
2022-09-20T12:42:21.620Z,0.20
2022-09-20T12:44:51.966Z,0.22
2022-09-20T12:47:31.540Z,0.20
2022-09-20T12:50:19.158Z,0.30
2022-09-20T12:52:58.874Z,0.28
2022-09-20T12:55:40.693Z,0.25
2022-09-20T12:58:14.546Z,0.20
2022-09-20T13:00:50.337Z,0.20
2022-09-20T13:03:27.366Z,0.30
2022-09-20T13:06:07.286Z,0.25
2022-09-20T13:08:57.163Z,0.20
2022-09-20T13:11:55.091Z,0.30
2022-09-20T13:14:29.064Z,0.30
2022-09-20T13:17:25.295Z,0.40
2022-09-20T13:19:53.057Z,0.30
2022-09-20T13:22:33.164Z,0.40
2022-09-20T13:25:03.106Z,0.40
2022-09-20T13:27:34.700Z,0.50
2022-09-20T13:30:19.897Z,0.20
2022-09-20T13:32:48.557Z,0.30
2022-09-20T13:35:29.555Z,0.45
2022-09-20T13:38:07.188Z,0.45
2022-09-20T13:40:47.923Z,0.50
2022-09-20T13:43:27.741Z,0.40
2022-09-20T13:45:59.939Z,0.30
2022-09-20T13:48:30.991Z,0.40
2022-09-20T13:50:59.057Z,0.50
2022-09-20T13:53:41.120Z,0.50
2022-09-20T13:56:19.812Z,0.73
2022-09-20T13:58:48.672Z,0.45
2022-09-20T14:01:44.323Z,0.70
2022-09-20T14:04:18.492Z,0.60
2022-09-20T14:06:46.054Z,0.45
2022-09-20T14:09:39.480Z,0.30
2022-09-20T14:12:07.228Z,0.52
2022-09-20T14:14:35.829Z,0.40
2022-09-20T14:17:06.656Z,0.60
2022-09-20T14:19:40.760Z,0.35
2022-09-20T14:22:14.101Z,0.40
2022-09-20T14:24:41.726Z,0.40
2022-09-20T14:27:17.021Z,0.63
2022-09-20T14:29:49.849Z,0.30
2022-09-20T14:32:17.022Z,0.60
2022-09-20T14:34:51.903Z,0.40
2022-09-20T14:37:25.895Z,0.40
2022-09-20T14:40:02.020Z,0.40
2022-09-20T14:42:35.273Z,0.30
2022-09-20T14:45:07.106Z,0.40
2022-09-20T14:47:40.047Z,0.50
2022-09-20T14:50:29.961Z,0.35
2022-09-20T14:53:01.205Z,0.40
2022-09-20T14:55:28.698Z,0.30
2022-09-20T14:58:03.254Z,0.20
2022-09-20T15:03:05.654Z,0.30
2022-09-20T15:05:33.976Z,0.40
2022-09-20T15:08:01.461Z,0.47
2022-09-20T15:10:30.491Z,0.50
2022-09-20T15:12:58.024Z,0.40
2022-09-20T15:15:25.324Z,0.47
2022-09-20T15:17:53.093Z,0.40
2022-09-20T15:20:24.334Z,0.35
2022-09-20T15:22:52.133Z,0.38
2022-09-20T15:25:24.636Z,0.30
2022-09-20T15:27:51.969Z,0.30
2022-09-20T15:30:20.406Z,0.32
2022-09-20T15:32:48.036Z,0.30
2022-09-20T15:35:16.697Z,0.30
2022-09-20T15:37:45.136Z,0.30
2022-09-20T15:40:12.552Z,0.40
2022-09-20T15:42:41.729Z,0.20
2022-09-20T15:45:10.652Z,0.25
2022-09-20T15:47:39.306Z,0.30
2022-09-20T15:50:08.721Z,0.38
2022-09-20T15:52:38.056Z,0.30
2022-09-20T15:55:06.193Z,0.30
2022-09-20T15:57:34.335Z,0.30
2022-09-20T16:00:01.770Z,0.30
2022-09-20T16:02:35.954Z,0.30
2022-09-20T16:05:03.876Z,0.40
2022-09-20T16:07:31.268Z,0.50
2022-09-20T16:09:58.545Z,0.50
2022-09-20T16:12:26.029Z,0.40
2022-09-20T16:14:53.597Z,0.57
2022-09-20T16:17:40.896Z,0.43
2022-09-20T16:20:08.740Z,0.50
2022-09-20T16:22:36.018Z,0.50
2022-09-20T16:25:06.091Z,0.40
2022-09-20T16:27:35.019Z,0.50
2022-09-20T16:30:02.875Z,0.50
2022-09-20T16:32:30.283Z,0.57
2022-09-20T16:34:58.683Z,0.80
2022-09-20T16:37:26.658Z,0.50
2022-09-20T16:39:53.980Z,0.40
2022-09-20T16:42:21.335Z,0.40
2022-09-20T16:44:48.595Z,0.40
2022-09-20T16:47:26.402Z,0.50
2022-09-20T16:49:54.398Z,0.40
2022-09-20T16:52:21.844Z,0.50
2022-09-20T16:54:49.129Z,0.60
2022-09-20T16:57:16.708Z,0.45
2022-09-20T16:59:44.485Z,0.50
2022-09-20T17:02:13.215Z,0.40
2022-09-20T17:04:41.982Z,0.45
2022-09-20T17:07:09.319Z,0.50
2022-09-20T17:09:36.628Z,0.50
2022-09-20T17:12:09.521Z,0.40
2022-09-20T17:14:37.324Z,0.50
2022-09-20T17:17:04.747Z,0.50
2022-09-20T17:19:31.978Z,0.43
2022-09-20T17:22:00.268Z,0.50
2022-09-20T17:24:30.275Z,0.50
2022-09-20T17:26:57.686Z,0.50
2022-09-20T17:29:24.929Z,0.52
2022-09-20T17:31:55.876Z,0.40
2022-09-20T17:34:25.543Z,0.47
2022-09-20T17:36:55.132Z,0.50
2022-09-20T17:39:23.060Z,0.50
2022-09-20T17:41:50.887Z,0.40
2022-09-20T17:44:18.809Z,0.50
2022-09-20T17:46:49.684Z,0.63
2022-09-20T17:49:22.241Z,0.50
2022-09-20T17:51:51.995Z,0.50
2022-09-20T17:54:19.838Z,0.40
2022-09-20T17:56:50.467Z,0.60
2022-09-20T17:59:19.179Z,0.40
2022-09-20T18:01:49.953Z,0.57
2022-09-20T18:04:17.780Z,0.50
2022-09-20T18:06:47.538Z,0.63
2022-09-20T18:09:19.446Z,0.52
2022-09-20T18:11:49.950Z,0.60
2022-09-20T18:14:20.477Z,0.60
2022-09-20T18:16:48.168Z,0.60
2022-09-20T18:19:16.226Z,0.60
2022-09-20T18:21:44.096Z,0.70
2022-09-20T18:24:12.216Z,0.55
2022-09-20T18:26:40.397Z,0.60
2022-09-20T18:29:12.632Z,0.50
2022-09-20T18:31:50.947Z,0.50
2022-09-20T18:34:20.508Z,0.80
2022-09-20T18:36:55.084Z,0.60
2022-09-20T18:39:23.255Z,0.60
2022-09-20T18:41:51.521Z,0.50
2022-09-20T18:44:19.797Z,0.45
2022-09-20T18:46:47.747Z,0.50
2022-09-20T18:49:17.185Z,0.70
2022-09-20T18:51:45.598Z,0.60
2022-09-20T18:54:13.133Z,0.70
2022-09-20T18:56:49.076Z,0.60
2022-09-20T18:59:25.320Z,0.60
2022-09-20T19:02:12.768Z,0.60
2022-09-20T19:04:49.663Z,0.63
2022-09-20T19:07:26.126Z,0.50
2022-09-20T19:10:05.590Z,0.70
2022-09-20T19:12:48.845Z,0.68
2022-09-20T19:15:33.459Z,0.70
2022-09-20T19:18:33.075Z,0.98
2022-09-20T19:21:09.361Z,1.20
2022-09-20T19:24:05.984Z,1.70
2022-09-20T19:26:38.375Z,0.75
2022-09-20T19:29:22.632Z,0.90
2022-09-20T19:31:54.420Z,0.70
2022-09-20T19:34:27.582Z,1.00
2022-09-20T19:37:03.326Z,0.82
2022-09-20T19:39:33.403Z,0.65
2022-09-20T19:42:36.273Z,0.77
2022-09-20T19:45:34.091Z,0.75
2022-09-20T19:48:11.818Z,0.88
2022-09-20T19:50:41.501Z,0.93
2022-09-20T19:53:10.106Z,0.93
2022-09-20T19:55:37.974Z,1.02
2022-09-20T19:58:05.465Z,0.70
2022-09-20T20:00:33.084Z,0.70
2022-09-20T20:03:00.710Z,0.63
2022-09-20T20:05:29.303Z,0.80
2022-09-20T20:08:25.397Z,1.00
2022-09-20T20:11:14.641Z,0.80
2022-09-20T20:14:03.244Z,1.02
2022-09-20T20:16:52.481Z,1.00
2022-09-20T20:19:51.384Z,1.20
2022-09-20T20:23:24.077Z,0.90
2022-09-20T20:26:03.223Z,0.88
2022-09-20T20:28:30.773Z,1.00
2022-09-20T20:31:02.334Z,1.20
2022-09-20T20:33:31.527Z,1.45
2022-09-20T20:36:01.278Z,1.00
2022-09-20T20:38:30.222Z,1.05
2022-09-20T20:41:04.684Z,0.95
2022-09-20T20:45:59.797Z,1.00
2022-09-20T20:48:27.279Z,1.17
2022-09-20T20:51:05.763Z,1.35
2022-09-20T20:53:35.831Z,1.20
2022-09-20T20:56:07.351Z,1.65
2022-09-20T20:58:40.792Z,1.10
2022-09-20T21:01:17.051Z,1.40
2022-09-20T21:03:47.935Z,1.60
2022-09-20T21:06:15.801Z,1.27
2022-09-20T21:08:49.077Z,1.30
2022-09-20T21:11:26.290Z,1.42
2022-09-20T21:13:55.770Z,1.88
2022-09-20T21:16:45.717Z,1.13
2022-09-20T21:19:15.764Z,1.15
2022-09-20T21:21:44.849Z,1.63
2022-09-20T21:24:17.432Z,1.60
2022-09-20T21:26:48.715Z,1.60
2022-09-20T21:29:16.734Z,1.38
2022-09-20T21:31:45.790Z,1.23
2022-09-20T21:34:15.531Z,1.38
2022-09-20T21:36:44.825Z,1.50
2022-09-20T21:39:12.635Z,1.15
2022-09-20T21:41:40.503Z,1.40
2022-09-20T21:44:10.413Z,1.10
2022-09-20T21:46:42.550Z,1.33
2022-09-20T21:49:11.797Z,1.30
2022-09-20T21:51:42.183Z,1.60
2022-09-20T21:54:09.845Z,1.73
2022-09-20T21:56:38.463Z,1.50
2022-09-20T21:59:07.855Z,1.98
2022-09-20T22:01:37.794Z,1.67
2022-09-20T22:04:07.805Z,1.38
2022-09-20T22:06:37.701Z,1.73
2022-09-20T22:09:25.123Z,1.45
2022-09-20T22:11:52.457Z,1.50
2022-09-20T22:14:20.121Z,2.00
2022-09-20T22:16:48.831Z,1.33
2022-09-20T22:19:17.721Z,1.63
2022-09-20T22:21:48.075Z,1.50
2022-09-20T22:24:16.884Z,1.77
2022-09-20T22:26:46.950Z,1.98
2022-09-20T22:29:14.973Z,1.70
2022-09-20T22:31:47.396Z,1.90
2022-09-20T22:34:22.337Z,1.95
2022-09-20T22:36:50.419Z,1.77
2022-09-20T22:39:17.914Z,1.55
2022-09-20T22:41:47.984Z,1.50
2022-09-20T22:44:15.647Z,1.40
2022-09-20T22:46:43.170Z,1.77
2022-09-20T22:49:10.898Z,1.38
2022-09-20T22:51:38.730Z,1.60
2022-09-20T22:54:10.641Z,1.60
2022-09-20T22:56:39.459Z,1.20
2022-09-20T22:59:14.625Z,1.30
2022-09-20T23:01:46.944Z,1.80
2022-09-20T23:04:19.996Z,1.20
2022-09-20T23:06:55.039Z,1.20
2022-09-20T23:09:28.350Z,1.40
2022-09-20T23:11:56.701Z,1.48
2022-09-20T23:14:24.043Z,1.13
2022-09-20T23:16:51.577Z,1.20
2022-09-20T23:19:19.146Z,1.08
2022-09-20T23:21:46.765Z,1.13
2022-09-20T23:24:15.261Z,1.00
2022-09-20T23:26:43.729Z,1.20
2022-09-20T23:29:15.400Z,1.10
2022-09-20T23:31:46.096Z,1.13
2022-09-20T23:34:15.500Z,1.27
2022-09-20T23:36:43.560Z,1.20
2022-09-20T23:39:12.038Z,0.90
2022-09-20T23:41:41.335Z,0.90
2022-09-20T23:44:10.106Z,1.10
2022-09-20T23:46:38.475Z,0.88
2022-09-20T23:49:06.988Z,1.00
2022-09-20T23:51:35.600Z,0.82
2022-09-20T23:54:03.947Z,0.93
2022-09-20T23:56:31.560Z,1.02
2022-09-20T23:58:59.035Z,1.00
